ADDS METAR Data INFO
IDs: Format: Raw Decoded Include TAF

Data at: 1504 UTC 23 Oct 2017

KIAH 231453Z 00000KT 10SM CLR 18/12 A3016 RMK AO2 SLP213 T01780117 53009